sensor_id;sensor_type;location;lat;lon;timestamp;P1;durP1;ratioP1;P2;durP2;ratioP2
16460;SDS011;8341;42.048;24.650;2023-04-25T00:00:55;3.10;;;2.90;;
16460;SDS011;8341;42.048;24.650;2023-04-25T00:03:21;4.80;;;3.97;;
16460;SDS011;8341;42.048;24.650;2023-04-25T00:05:50;6.40;;;5.80;;
16460;SDS011;8341;42.048;24.650;2023-04-25T00:08:17;7.60;;;6.90;;
16460;SDS011;8341;42.048;24.650;2023-04-25T00:10:44;8.40;;;7.70;;
16460;SDS011;8341;42.048;24.650;2023-04-25T00:13:10;7.93;;;6.93;;
16460;SDS011;8341;42.048;24.650;2023-04-25T00:15:39;7.18;;;6.07;;
16460;SDS011;8341;42.048;24.650;2023-04-25T00:18:07;6.43;;;5.82;;
16460;SDS011;8341;42.048;24.650;2023-04-25T00:20:35;9.32;;;6.28;;
16460;SDS011;8341;42.048;24.650;2023-04-25T00:23:01;8.60;;;6.15;;
16460;SDS011;8341;42.048;24.650;2023-04-25T00:25:28;5.30;;;4.80;;
16460;SDS011;8341;42.048;24.650;2023-04-25T00:27:55;7.10;;;5.47;;
16460;SDS011;8341;42.048;24.650;2023-04-25T00:30:22;6.85;;;5.53;;
16460;SDS011;8341;42.048;24.650;2023-04-25T00:32:50;5.30;;;4.75;;
16460;SDS011;8341;42.048;24.650;2023-04-25T00:35:17;6.22;;;5.55;;
16460;SDS011;8341;42.048;24.650;2023-04-25T00:37:43;5.78;;;5.18;;
16460;SDS011;8341;42.048;24.650;2023-04-25T00:40:10;4.00;;;3.58;;
16460;SDS011;8341;42.048;24.650;2023-04-25T00:42:37;4.35;;;3.13;;
16460;SDS011;8341;42.048;24.650;2023-04-25T00:45:05;4.20;;;3.88;;
16460;SDS011;8341;42.048;24.650;2023-04-25T00:47:35;5.32;;;4.75;;
16460;SDS011;8341;42.048;24.650;2023-04-25T00:50:04;6.72;;;4.65;;
16460;SDS011;8341;42.048;24.650;2023-04-25T00:52:31;5.15;;;4.30;;
16460;SDS011;8341;42.048;24.650;2023-04-25T00:54:58;11.65;;;5.90;;
16460;SDS011;8341;42.048;24.650;2023-04-25T00:57:25;9.70;;;5.80;;
16460;SDS011;8341;42.048;24.650;2023-04-25T00:59:53;5.68;;;5.18;;
16460;SDS011;8341;42.048;24.650;2023-04-25T01:02:20;5.88;;;5.30;;
16460;SDS011;8341;42.048;24.650;2023-04-25T01:04:47;5.93;;;5.32;;
16460;SDS011;8341;42.048;24.650;2023-04-25T01:07:16;7.43;;;6.72;;
16460;SDS011;8341;42.048;24.650;2023-04-25T01:09:43;7.28;;;6.57;;
16460;SDS011;8341;42.048;24.650;2023-04-25T01:12:10;6.53;;;5.68;;
16460;SDS011;8341;42.048;24.650;2023-04-25T01:14:37;6.68;;;5.60;;
16460;SDS011;8341;42.048;24.650;2023-04-25T01:17:04;7.60;;;5.82;;
16460;SDS011;8341;42.048;24.650;2023-04-25T01:19:32;6.80;;;6.10;;
16460;SDS011;8341;42.048;24.650;2023-04-25T01:22:01;6.38;;;5.80;;
16460;SDS011;8341;42.048;24.650;2023-04-25T01:24:28;6.82;;;5.47;;
16460;SDS011;8341;42.048;24.650;2023-04-25T01:26:55;7.57;;;4.68;;
16460;SDS011;8341;42.048;24.650;2023-04-25T01:29:23;5.47;;;4.70;;
16460;SDS011;8341;42.048;24.650;2023-04-25T01:31:51;6.30;;;4.90;;
16460;SDS011;8341;42.048;24.650;2023-04-25T01:34:18;7.30;;;6.63;;
16460;SDS011;8341;42.048;24.650;2023-04-25T01:36:45;7.60;;;6.68;;
16460;SDS011;8341;42.048;24.650;2023-04-25T01:39:16;6.97;;;5.93;;
16460;SDS011;8341;42.048;24.650;2023-04-25T01:41:43;7.25;;;6.40;;
16460;SDS011;8341;42.048;24.650;2023-04-25T01:44:10;5.65;;;5.15;;
16460;SDS011;8341;42.048;24.650;2023-04-25T01:46:37;4.60;;;4.20;;
16460;SDS011;8341;42.048;24.650;2023-04-25T01:49:04;5.22;;;4.72;;
16460;SDS011;8341;42.048;24.650;2023-04-25T01:51:31;5.05;;;4.55;;
16460;SDS011;8341;42.048;24.650;2023-04-25T01:53:58;5.47;;;4.97;;
16460;SDS011;8341;42.048;24.650;2023-04-25T01:56:27;7.78;;;5.93;;
16460;SDS011;8341;42.048;24.650;2023-04-25T01:58:56;7.05;;;5.90;;
16460;SDS011;8341;42.048;24.650;2023-04-25T02:01:23;7.20;;;5.70;;
16460;SDS011;8341;42.048;24.650;2023-04-25T02:03:50;6.93;;;6.10;;
16460;SDS011;8341;42.048;24.650;2023-04-25T02:06:17;7.30;;;5.90;;
16460;SDS011;8341;42.048;24.650;2023-04-25T02:08:44;9.93;;;7.82;;
16460;SDS011;8341;42.048;24.650;2023-04-25T02:11:10;11.82;;;8.95;;
16460;SDS011;8341;42.048;24.650;2023-04-25T02:13:38;11.73;;;8.77;;
16460;SDS011;8341;42.048;24.650;2023-04-25T02:16:05;11.45;;;8.63;;
16460;SDS011;8341;42.048;24.650;2023-04-25T02:18:32;11.52;;;8.75;;
16460;SDS011;8341;42.048;24.650;2023-04-25T02:20:59;6.88;;;5.90;;
16460;SDS011;8341;42.048;24.650;2023-04-25T02:23:26;6.40;;;5.40;;
16460;SDS011;8341;42.048;24.650;2023-04-25T02:25:53;6.05;;;4.35;;
16460;SDS011;8341;42.048;24.650;2023-04-25T02:28:20;6.38;;;4.60;;
16460;SDS011;8341;42.048;24.650;2023-04-25T02:30:48;4.85;;;4.03;;
16460;SDS011;8341;42.048;24.650;2023-04-25T02:33:15;4.72;;;4.20;;
16460;SDS011;8341;42.048;24.650;2023-04-25T02:35:42;4.20;;;3.80;;
16460;SDS011;8341;42.048;24.650;2023-04-25T02:38:09;3.90;;;3.50;;
16460;SDS011;8341;42.048;24.650;2023-04-25T02:40:35;4.25;;;3.70;;
16460;SDS011;8341;42.048;24.650;2023-04-25T02:43:02;4.03;;;3.65;;
16460;SDS011;8341;42.048;24.650;2023-04-25T02:45:29;4.95;;;3.55;;
16460;SDS011;8341;42.048;24.650;2023-04-25T02:47:57;4.85;;;4.28;;
16460;SDS011;8341;42.048;24.650;2023-04-25T02:50:24;6.18;;;5.45;;
16460;SDS011;8341;42.048;24.650;2023-04-25T02:52:51;5.50;;;4.53;;
16460;SDS011;8341;42.048;24.650;2023-04-25T02:55:17;9.75;;;7.07;;
16460;SDS011;8341;42.048;24.650;2023-04-25T02:57:44;7.85;;;6.00;;
16460;SDS011;8341;42.048;24.650;2023-04-25T03:00:12;7.15;;;6.38;;
16460;SDS011;8341;42.048;24.650;2023-04-25T03:02:40;6.57;;;5.78;;
16460;SDS011;8341;42.048;24.650;2023-04-25T03:05:08;7.63;;;6.25;;
16460;SDS011;8341;42.048;24.650;2023-04-25T03:07:35;9.20;;;7.63;;
16460;SDS011;8341;42.048;24.650;2023-04-25T03:10:02;11.48;;;8.40;;
16460;SDS011;8341;42.048;24.650;2023-04-25T03:12:28;9.73;;;8.02;;
16460;SDS011;8341;42.048;24.650;2023-04-25T03:14:55;10.80;;;8.38;;
16460;SDS011;8341;42.048;24.650;2023-04-25T03:17:22;9.55;;;8.02;;
16460;SDS011;8341;42.048;24.650;2023-04-25T03:19:49;6.15;;;5.45;;
16460;SDS011;8341;42.048;24.650;2023-04-25T03:22:17;6.32;;;5.60;;
16460;SDS011;8341;42.048;24.650;2023-04-25T03:24:44;7.22;;;5.60;;
16460;SDS011;8341;42.048;24.650;2023-04-25T03:27:10;7.13;;;6.20;;
16460;SDS011;8341;42.048;24.650;2023-04-25T03:29:37;6.40;;;5.80;;
16460;SDS011;8341;42.048;24.650;2023-04-25T03:32:05;6.85;;;5.78;;
16460;SDS011;8341;42.048;24.650;2023-04-25T03:34:32;6.65;;;5.93;;
16460;SDS011;8341;42.048;24.650;2023-04-25T03:36:59;6.68;;;5.85;;
16460;SDS011;8341;42.048;24.650;2023-04-25T03:39:27;6.15;;;5.55;;
16460;SDS011;8341;42.048;24.650;2023-04-25T03:41:54;9.23;;;6.43;;
16460;SDS011;8341;42.048;24.650;2023-04-25T03:44:21;7.95;;;5.90;;
16460;SDS011;8341;42.048;24.650;2023-04-25T03:46:49;7.07;;;6.28;;
16460;SDS011;8341;42.048;24.650;2023-04-25T03:49:16;9.13;;;7.07;;
16460;SDS011;8341;42.048;24.650;2023-04-25T03:51:42;7.50;;;6.68;;
16460;SDS011;8341;42.048;24.650;2023-04-25T03:54:09;7.55;;;6.75;;
16460;SDS011;8341;42.048;24.650;2023-04-25T03:56:37;5.63;;;5.07;;
16460;SDS011;8341;42.048;24.650;2023-04-25T03:59:04;9.27;;;7.10;;
16460;SDS011;8341;42.048;24.650;2023-04-25T04:01:31;8.63;;;6.90;;
16460;SDS011;8341;42.048;24.650;2023-04-25T04:03:57;9.73;;;7.15;;
16460;SDS011;8341;42.048;24.650;2023-04-25T04:06:24;7.18;;;6.43;;
16460;SDS011;8341;42.048;24.650;2023-04-25T04:08:51;6.70;;;5.15;;
16460;SDS011;8341;42.048;24.650;2023-04-25T04:11:19;6.60;;;4.93;;
16460;SDS011;8341;42.048;24.650;2023-04-25T04:13:47;8.20;;;7.03;;
16460;SDS011;8341;42.048;24.650;2023-04-25T04:16:14;8.27;;;7.40;;
16460;SDS011;8341;42.048;24.650;2023-04-25T04:18:41;6.35;;;5.72;;
16460;SDS011;8341;42.048;24.650;2023-04-25T04:21:08;6.65;;;5.97;;
16460;SDS011;8341;42.048;24.650;2023-04-25T04:23:35;7.65;;;5.70;;
16460;SDS011;8341;42.048;24.650;2023-04-25T04:26:02;6.15;;;5.07;;
16460;SDS011;8341;42.048;24.650;2023-04-25T04:28:30;5.20;;;4.70;;
16460;SDS011;8341;42.048;24.650;2023-04-25T04:30:58;10.80;;;7.47;;
16460;SDS011;8341;42.048;24.650;2023-04-25T04:33:26;7.22;;;6.50;;
16460;SDS011;8341;42.048;24.650;2023-04-25T04:35:53;8.40;;;7.50;;
16460;SDS011;8341;42.048;24.650;2023-04-25T04:38:20;7.85;;;7.05;;
16460;SDS011;8341;42.048;24.650;2023-04-25T04:40:47;9.48;;;6.78;;
16460;SDS011;8341;42.048;24.650;2023-04-25T04:43:15;7.55;;;6.30;;
16460;SDS011;8341;42.048;24.650;2023-04-25T04:45:43;7.07;;;6.00;;
16460;SDS011;8341;42.048;24.650;2023-04-25T04:48:12;6.43;;;5.82;;
16460;SDS011;8341;42.048;24.650;2023-04-25T04:50:39;6.43;;;5.75;;
16460;SDS011;8341;42.048;24.650;2023-04-25T04:53:06;9.32;;;8.00;;
16460;SDS011;8341;42.048;24.650;2023-04-25T04:55:33;11.50;;;9.20;;
16460;SDS011;8341;42.048;24.650;2023-04-25T04:58:00;7.25;;;6.45;;
16460;SDS011;8341;42.048;24.650;2023-04-25T05:00:27;6.25;;;5.65;;
16460;SDS011;8341;42.048;24.650;2023-04-25T05:02:54;7.30;;;4.78;;
16460;SDS011;8341;42.048;24.650;2023-04-25T05:05:22;7.57;;;5.75;;
16460;SDS011;8341;42.048;24.650;2023-04-25T05:07:49;6.43;;;5.82;;
16460;SDS011;8341;42.048;24.650;2023-04-25T05:10:16;6.25;;;5.07;;
16460;SDS011;8341;42.048;24.650;2023-04-25T05:12:43;6.85;;;5.60;;
16460;SDS011;8341;42.048;24.650;2023-04-25T05:15:10;8.65;;;5.93;;
16460;SDS011;8341;42.048;24.650;2023-04-25T05:17:37;6.95;;;6.20;;
16460;SDS011;8341;42.048;24.650;2023-04-25T05:20:05;6.10;;;5.25;;
16460;SDS011;8341;42.048;24.650;2023-04-25T05:22:35;5.80;;;5.20;;
16460;SDS011;8341;42.048;24.650;2023-04-25T05:25:02;5.88;;;5.10;;
16460;SDS011;8341;42.048;24.650;2023-04-25T05:27:29;4.88;;;4.47;;
16460;SDS011;8341;42.048;24.650;2023-04-25T05:29:56;5.28;;;4.75;;
16460;SDS011;8341;42.048;24.650;2023-04-25T05:32:23;6.00;;;5.30;;
16460;SDS011;8341;42.048;24.650;2023-04-25T05:34:50;4.18;;;3.78;;
16460;SDS011;8341;42.048;24.650;2023-04-25T05:37:17;4.03;;;3.72;;
16460;SDS011;8341;42.048;24.650;2023-04-25T05:39:45;5.15;;;4.40;;
16460;SDS011;8341;42.048;24.650;2023-04-25T05:42:11;5.13;;;3.33;;
16460;SDS011;8341;42.048;24.650;2023-04-25T05:44:39;4.05;;;3.63;;
16460;SDS011;8341;42.048;24.650;2023-04-25T05:47:05;3.67;;;3.08;;
16460;SDS011;8341;42.048;24.650;2023-04-25T05:49:33;3.20;;;2.97;;
16460;SDS011;8341;42.048;24.650;2023-04-25T05:52:00;3.90;;;3.40;;
16460;SDS011;8341;42.048;24.650;2023-04-25T05:54:27;3.90;;;2.92;;
16460;SDS011;8341;42.048;24.650;2023-04-25T05:56:55;3.83;;;2.70;;
16460;SDS011;8341;42.048;24.650;2023-04-25T05:59:22;5.25;;;3.10;;
16460;SDS011;8341;42.048;24.650;2023-04-25T06:01:49;3.90;;;3.42;;
16460;SDS011;8341;42.048;24.650;2023-04-25T06:04:16;3.05;;;2.78;;
16460;SDS011;8341;42.048;24.650;2023-04-25T06:06:43;2.50;;;2.40;;
16460;SDS011;8341;42.048;24.650;2023-04-25T06:09:10;3.13;;;2.80;;
16460;SDS011;8341;42.048;24.650;2023-04-25T06:11:37;3.08;;;2.78;;
16460;SDS011;8341;42.048;24.650;2023-04-25T06:14:05;3.65;;;3.35;;
16460;SDS011;8341;42.048;24.650;2023-04-25T06:16:32;3.50;;;3.22;;
16460;SDS011;8341;42.048;24.650;2023-04-25T06:18:59;5.38;;;3.80;;
16460;SDS011;8341;42.048;24.650;2023-04-25T06:21:26;3.95;;;3.55;;
16460;SDS011;8341;42.048;24.650;2023-04-25T06:23:52;3.85;;;3.20;;
16460;SDS011;8341;42.048;24.650;2023-04-25T06:26:19;3.30;;;3.00;;
16460;SDS011;8341;42.048;24.650;2023-04-25T06:28:46;3.58;;;3.28;;
16460;SDS011;8341;42.048;24.650;2023-04-25T06:31:15;3.50;;;3.20;;
16460;SDS011;8341;42.048;24.650;2023-04-25T06:33:42;4.82;;;4.10;;
16460;SDS011;8341;42.048;24.650;2023-04-25T06:36:09;4.32;;;3.75;;
16460;SDS011;8341;42.048;24.650;2023-04-25T06:38:35;3.85;;;3.47;;
16460;SDS011;8341;42.048;24.650;2023-04-25T06:41:02;3.40;;;3.10;;
16460;SDS011;8341;42.048;24.650;2023-04-25T06:43:30;3.20;;;2.97;;
16460;SDS011;8341;42.048;24.650;2023-04-25T06:45:58;2.70;;;2.50;;
16460;SDS011;8341;42.048;24.650;2023-04-25T06:48:27;3.08;;;2.83;;
16460;SDS011;8341;42.048;24.650;2023-04-25T06:50:54;3.97;;;3.60;;
16460;SDS011;8341;42.048;24.650;2023-04-25T06:53:21;3.47;;;3.17;;
16460;SDS011;8341;42.048;24.650;2023-04-25T06:55:48;3.50;;;3.20;;
16460;SDS011;8341;42.048;24.650;2023-04-25T06:58:15;3.13;;;2.90;;
16460;SDS011;8341;42.048;24.650;2023-04-25T07:00:42;4.25;;;3.60;;
16460;SDS011;8341;42.048;24.650;2023-04-25T07:03:08;3.60;;;3.30;;
16460;SDS011;8341;42.048;24.650;2023-04-25T07:05:37;3.92;;;3.63;;
16460;SDS011;8341;42.048;24.650;2023-04-25T07:08:04;4.35;;;3.95;;
16460;SDS011;8341;42.048;24.650;2023-04-25T07:10:31;4.50;;;4.07;;
16460;SDS011;8341;42.048;24.650;2023-04-25T07:12:57;5.03;;;4.50;;
16460;SDS011;8341;42.048;24.650;2023-04-25T07:15:24;7.57;;;5.03;;
16460;SDS011;8341;42.048;24.650;2023-04-25T07:17:51;5.53;;;4.40;;
16460;SDS011;8341;42.048;24.650;2023-04-25T07:20:18;5.25;;;4.55;;
16460;SDS011;8341;42.048;24.650;2023-04-25T07:22:46;5.22;;;4.43;;
16460;SDS011;8341;42.048;24.650;2023-04-25T07:25:12;4.55;;;4.00;;
16460;SDS011;8341;42.048;24.650;2023-04-25T07:27:39;5.00;;;4.53;;
16460;SDS011;8341;42.048;24.650;2023-04-25T07:30:07;4.97;;;4.57;;
16460;SDS011;8341;42.048;24.650;2023-04-25T07:32:34;4.93;;;4.50;;
16460;SDS011;8341;42.048;24.650;2023-04-25T07:35:01;4.95;;;4.28;;
16460;SDS011;8341;42.048;24.650;2023-04-25T07:37:28;5.85;;;4.47;;
16460;SDS011;8341;42.048;24.650;2023-04-25T07:39:56;4.72;;;4.32;;
16460;SDS011;8341;42.048;24.650;2023-04-25T07:42:23;4.57;;;4.18;;
16460;SDS011;8341;42.048;24.650;2023-04-25T07:44:50;4.88;;;3.97;;
16460;SDS011;8341;42.048;24.650;2023-04-25T07:47:17;5.20;;;4.65;;
16460;SDS011;8341;42.048;24.650;2023-04-25T07:49:45;5.13;;;4.63;;
16460;SDS011;8341;42.048;24.650;2023-04-25T07:52:11;4.40;;;4.10;;
16460;SDS011;8341;42.048;24.650;2023-04-25T07:54:38;4.40;;;4.00;;
16460;SDS011;8341;42.048;24.650;2023-04-25T07:57:06;5.97;;;4.55;;
16460;SDS011;8341;42.048;24.650;2023-04-25T07:59:33;3.92;;;3.63;;
16460;SDS011;8341;42.048;24.650;2023-04-25T08:02:00;4.60;;;4.20;;
16460;SDS011;8341;42.048;24.650;2023-04-25T08:04:27;7.40;;;4.22;;
16460;SDS011;8341;42.048;24.650;2023-04-25T08:06:54;4.30;;;3.90;;
16460;SDS011;8341;42.048;24.650;2023-04-25T08:09:21;4.20;;;3.80;;
16460;SDS011;8341;42.048;24.650;2023-04-25T08:11:48;5.03;;;4.00;;
16460;SDS011;8341;42.048;24.650;2023-04-25T08:14:16;4.13;;;3.80;;
16460;SDS011;8341;42.048;24.650;2023-04-25T08:16:43;5.07;;;4.55;;
16460;SDS011;8341;42.048;24.650;2023-04-25T08:19:10;4.85;;;4.25;;
16460;SDS011;8341;42.048;24.650;2023-04-25T08:21:37;4.00;;;3.70;;
16460;SDS011;8341;42.048;24.650;2023-04-25T08:24:04;4.60;;;3.90;;
16460;SDS011;8341;42.048;24.650;2023-04-25T08:26:31;3.80;;;3.50;;
16460;SDS011;8341;42.048;24.650;2023-04-25T08:28:58;4.60;;;4.20;;
16460;SDS011;8341;42.048;24.650;2023-04-25T08:31:26;6.78;;;4.00;;
16460;SDS011;8341;42.048;24.650;2023-04-25T08:33:53;5.70;;;4.30;;
16460;SDS011;8341;42.048;24.650;2023-04-25T08:36:19;6.35;;;4.50;;
16460;SDS011;8341;42.048;24.650;2023-04-25T08:38:46;4.47;;;4.18;;
16460;SDS011;8341;42.048;24.650;2023-04-25T08:41:13;5.40;;;4.70;;
16460;SDS011;8341;42.048;24.650;2023-04-25T08:43:42;4.55;;;4.15;;
16460;SDS011;8341;42.048;24.650;2023-04-25T08:46:09;7.80;;;5.00;;
16460;SDS011;8341;42.048;24.650;2023-04-25T08:48:40;4.82;;;4.05;;
16460;SDS011;8341;42.048;24.650;2023-04-25T08:51:08;4.50;;;4.18;;
16460;SDS011;8341;42.048;24.650;2023-04-25T08:53:40;5.25;;;4.75;;
16460;SDS011;8341;42.048;24.650;2023-04-25T08:56:08;5.63;;;4.70;;
16460;SDS011;8341;42.048;24.650;2023-04-25T08:58:38;4.95;;;4.55;;
16460;SDS011;8341;42.048;24.650;2023-04-25T09:01:05;5.10;;;4.70;;
16460;SDS011;8341;42.048;24.650;2023-04-25T09:03:32;4.90;;;4.50;;
16460;SDS011;8341;42.048;24.650;2023-04-25T09:06:00;5.18;;;4.40;;
16460;SDS011;8341;42.048;24.650;2023-04-25T09:08:28;5.50;;;5.00;;
16460;SDS011;8341;42.048;24.650;2023-04-25T09:10:55;5.20;;;4.75;;
16460;SDS011;8341;42.048;24.650;2023-04-25T09:13:26;4.80;;;4.40;;
16460;SDS011;8341;42.048;24.650;2023-04-25T09:15:54;4.80;;;4.40;;
16460;SDS011;8341;42.048;24.650;2023-04-25T09:18:23;6.47;;;4.07;;
16460;SDS011;8341;42.048;24.650;2023-04-25T09:20:51;4.50;;;4.10;;
16460;SDS011;8341;42.048;24.650;2023-04-25T09:23:21;5.10;;;4.68;;
16460;SDS011;8341;42.048;24.650;2023-04-25T09:25:49;5.18;;;4.47;;
16460;SDS011;8341;42.048;24.650;2023-04-25T09:28:17;4.80;;;4.40;;
16460;SDS011;8341;42.048;24.650;2023-04-25T09:30:54;4.20;;;3.80;;
16460;SDS011;8341;42.048;24.650;2023-04-25T09:33:26;3.75;;;3.47;;
16460;SDS011;8341;42.048;24.650;2023-04-25T09:35:56;3.95;;;3.65;;
16460;SDS011;8341;42.048;24.650;2023-04-25T09:38:31;6.82;;;4.18;;
16460;SDS011;8341;42.048;24.650;2023-04-25T09:40:58;3.92;;;3.53;;
16460;SDS011;8341;42.048;24.650;2023-04-25T09:43:26;4.30;;;3.65;;
16460;SDS011;8341;42.048;24.650;2023-04-25T09:45:54;3.60;;;3.40;;
16460;SDS011;8341;42.048;24.650;2023-04-25T09:48:22;4.38;;;3.83;;
16460;SDS011;8341;42.048;24.650;2023-04-25T09:51:03;4.13;;;3.83;;
16460;SDS011;8341;42.048;24.650;2023-04-25T09:53:32;3.72;;;3.53;;
16460;SDS011;8341;42.048;24.650;2023-04-25T09:56:00;3.80;;;3.53;;
16460;SDS011;8341;42.048;24.650;2023-04-25T09:58:31;4.30;;;3.58;;
16460;SDS011;8341;42.048;24.650;2023-04-25T10:00:59;4.80;;;4.35;;
16460;SDS011;8341;42.048;24.650;2023-04-25T10:03:28;4.80;;;3.78;;
16460;SDS011;8341;42.048;24.650;2023-04-25T10:05:57;4.10;;;3.63;;
16460;SDS011;8341;42.048;24.650;2023-04-25T10:08:29;3.95;;;3.65;;
16460;SDS011;8341;42.048;24.650;2023-04-25T10:11:00;4.20;;;3.80;;
16460;SDS011;8341;42.048;24.650;2023-04-25T10:13:29;3.92;;;3.63;;
16460;SDS011;8341;42.048;24.650;2023-04-25T10:15:57;3.10;;;2.90;;
16460;SDS011;8341;42.048;24.650;2023-04-25T10:18:24;3.30;;;3.10;;
16460;SDS011;8341;42.048;24.650;2023-04-25T10:20:52;3.00;;;2.80;;
16460;SDS011;8341;42.048;24.650;2023-04-25T10:23:20;2.78;;;2.58;;
16460;SDS011;8341;42.048;24.650;2023-04-25T10:25:47;3.10;;;2.90;;
16460;SDS011;8341;42.048;24.650;2023-04-25T10:28:16;2.83;;;2.63;;
16460;SDS011;8341;42.048;24.650;2023-04-25T10:30:59;3.47;;;3.00;;
16460;SDS011;8341;42.048;24.650;2023-04-25T10:33:29;3.17;;;2.97;;
16460;SDS011;8341;42.048;24.650;2023-04-25T10:35:59;3.25;;;2.95;;
16460;SDS011;8341;42.048;24.650;2023-04-25T10:38:35;3.95;;;3.17;;
16460;SDS011;8341;42.048;24.650;2023-04-25T10:41:02;4.57;;;3.00;;
16460;SDS011;8341;42.048;24.650;2023-04-25T10:43:36;3.08;;;2.88;;
16460;SDS011;8341;42.048;24.650;2023-04-25T10:46:16;2.88;;;2.60;;
16460;SDS011;8341;42.048;24.650;2023-04-25T10:48:45;5.20;;;4.22;;
16460;SDS011;8341;42.048;24.650;2023-04-25T10:51:18;2.50;;;2.30;;
16460;SDS011;8341;42.048;24.650;2023-04-25T10:53:47;2.35;;;2.25;;
16460;SDS011;8341;42.048;24.650;2023-04-25T10:56:22;2.28;;;1.80;;
16460;SDS011;8341;42.048;24.650;2023-04-25T10:58:52;1.58;;;1.58;;
16460;SDS011;8341;42.048;24.650;2023-04-25T11:01:35;2.10;;;2.00;;
16460;SDS011;8341;42.048;24.650;2023-04-25T11:04:02;2.28;;;2.17;;
16460;SDS011;8341;42.048;24.650;2023-04-25T11:06:31;2.72;;;2.33;;
16460;SDS011;8341;42.048;24.650;2023-04-25T11:09:09;2.10;;;2.00;;
16460;SDS011;8341;42.048;24.650;2023-04-25T11:11:38;2.38;;;2.17;;
16460;SDS011;8341;42.048;24.650;2023-04-25T11:14:07;2.10;;;2.00;;
16460;SDS011;8341;42.048;24.650;2023-04-25T11:16:33;2.72;;;2.53;;
16460;SDS011;8341;42.048;24.650;2023-04-25T11:19:01;2.75;;;2.55;;
16460;SDS011;8341;42.048;24.650;2023-04-25T11:21:28;2.95;;;2.75;;
16460;SDS011;8341;42.048;24.650;2023-04-25T11:23:56;2.50;;;2.30;;
16460;SDS011;8341;42.048;24.650;2023-04-25T11:26:24;2.70;;;2.50;;
16460;SDS011;8341;42.048;24.650;2023-04-25T11:28:51;2.53;;;2.33;;
16460;SDS011;8341;42.048;24.650;2023-04-25T11:31:21;2.42;;;2.20;;
16460;SDS011;8341;42.048;24.650;2023-04-25T11:33:48;2.35;;;2.15;;
16460;SDS011;8341;42.048;24.650;2023-04-25T11:36:14;3.17;;;2.15;;
16460;SDS011;8341;42.048;24.650;2023-04-25T11:38:41;2.20;;;2.08;;
16460;SDS011;8341;42.048;24.650;2023-04-25T11:41:08;2.58;;;1.90;;
16460;SDS011;8341;42.048;24.650;2023-04-25T11:43:35;1.73;;;1.63;;
16460;SDS011;8341;42.048;24.650;2023-04-25T11:46:06;2.75;;;1.80;;
16460;SDS011;8341;42.048;24.650;2023-04-25T11:48:37;1.67;;;1.60;;
16460;SDS011;8341;42.048;24.650;2023-04-25T11:51:05;1.90;;;1.70;;
16460;SDS011;8341;42.048;24.650;2023-04-25T11:53:32;1.77;;;1.67;;
16460;SDS011;8341;42.048;24.650;2023-04-25T11:55:58;1.95;;;1.70;;
16460;SDS011;8341;42.048;24.650;2023-04-25T11:58:26;2.00;;;1.90;;
16460;SDS011;8341;42.048;24.650;2023-04-25T12:00:53;2.10;;;2.00;;
16460;SDS011;8341;42.048;24.650;2023-04-25T12:03:23;2.72;;;1.98;;
16460;SDS011;8341;42.048;24.650;2023-04-25T12:05:53;5.30;;;1.77;;
16460;SDS011;8341;42.048;24.650;2023-04-25T12:08:29;1.95;;;1.75;;
16460;SDS011;8341;42.048;24.650;2023-04-25T12:10:56;1.80;;;1.70;;
16460;SDS011;8341;42.048;24.650;2023-04-25T12:13:23;1.90;;;1.80;;
16460;SDS011;8341;42.048;24.650;2023-04-25T12:15:53;3.90;;;2.05;;
16460;SDS011;8341;42.048;24.650;2023-04-25T12:18:22;2.08;;;1.98;;
16460;SDS011;8341;42.048;24.650;2023-04-25T12:20:52;2.53;;;2.22;;
16460;SDS011;8341;42.048;24.650;2023-04-25T12:23:24;2.15;;;2.05;;
16460;SDS011;8341;42.048;24.650;2023-04-25T12:25:52;2.08;;;1.95;;
16460;SDS011;8341;42.048;24.650;2023-04-25T12:28:20;1.95;;;1.85;;
16460;SDS011;8341;42.048;24.650;2023-04-25T12:30:52;2.00;;;1.90;;
16460;SDS011;8341;42.048;24.650;2023-04-25T12:33:23;2.35;;;1.63;;
16460;SDS011;8341;42.048;24.650;2023-04-25T12:35:49;2.53;;;2.40;;
16460;SDS011;8341;42.048;24.650;2023-04-25T12:38:24;3.40;;;1.80;;
16460;SDS011;8341;42.048;24.650;2023-04-25T12:40:52;2.13;;;2.03;;
16460;SDS011;8341;42.048;24.650;2023-04-25T12:43:19;3.08;;;2.33;;
16460;SDS011;8341;42.048;24.650;2023-04-25T12:45:47;2.50;;;1.85;;
16460;SDS011;8341;42.048;24.650;2023-04-25T12:48:15;2.25;;;1.95;;
16460;SDS011;8341;42.048;24.650;2023-04-25T12:50:42;1.98;;;1.88;;
16460;SDS011;8341;42.048;24.650;2023-04-25T12:53:09;2.13;;;1.88;;
16460;SDS011;8341;42.048;24.650;2023-04-25T12:55:38;2.17;;;2.00;;
16460;SDS011;8341;42.048;24.650;2023-04-25T12:58:05;2.90;;;2.30;;
16460;SDS011;8341;42.048;24.650;2023-04-25T13:00:32;2.78;;;2.58;;
16460;SDS011;8341;42.048;24.650;2023-04-25T13:02:59;4.20;;;2.60;;
16460;SDS011;8341;42.048;24.650;2023-04-25T13:05:26;2.55;;;2.40;;
16460;SDS011;8341;42.048;24.650;2023-04-25T13:07:53;2.63;;;2.42;;
16460;SDS011;8341;42.048;24.650;2023-04-25T13:10:19;5.45;;;2.60;;
16460;SDS011;8341;42.048;24.650;2023-04-25T13:12:48;1.83;;;1.80;;
16460;SDS011;8341;42.048;24.650;2023-04-25T13:15:15;2.08;;;1.15;;
16460;SDS011;8341;42.048;24.650;2023-04-25T13:17:42;2.13;;;1.45;;
16460;SDS011;8341;42.048;24.650;2023-04-25T13:20:09;1.30;;;1.00;;
16460;SDS011;8341;42.048;24.650;2023-04-25T13:22:37;1.90;;;1.15;;
16460;SDS011;8341;42.048;24.650;2023-04-25T13:25:04;1.38;;;1.27;;
16460;SDS011;8341;42.048;24.650;2023-04-25T13:27:33;1.60;;;1.50;;
16460;SDS011;8341;42.048;24.650;2023-04-25T13:30:02;2.45;;;1.30;;
16460;SDS011;8341;42.048;24.650;2023-04-25T13:32:32;1.45;;;1.30;;
16460;SDS011;8341;42.048;24.650;2023-04-25T13:35:01;1.92;;;1.63;;
16460;SDS011;8341;42.048;24.650;2023-04-25T13:37:28;2.00;;;1.80;;
16460;SDS011;8341;42.048;24.650;2023-04-25T13:39:58;1.80;;;1.70;;
16460;SDS011;8341;42.048;24.650;2023-04-25T13:42:25;1.85;;;1.75;;
16460;SDS011;8341;42.048;24.650;2023-04-25T13:44:52;1.92;;;1.83;;
16460;SDS011;8341;42.048;24.650;2023-04-25T13:47:20;4.00;;;1.83;;
16460;SDS011;8341;42.048;24.650;2023-04-25T13:49:48;3.08;;;1.80;;
16460;SDS011;8341;42.048;24.650;2023-04-25T13:52:15;1.50;;;1.40;;
16460;SDS011;8341;42.048;24.650;2023-04-25T13:54:42;3.35;;;1.77;;
16460;SDS011;8341;42.048;24.650;2023-04-25T13:57:08;1.48;;;1.48;;
16460;SDS011;8341;42.048;24.650;2023-04-25T13:59:36;1.65;;;1.40;;
16460;SDS011;8341;42.048;24.650;2023-04-25T14:02:03;1.98;;;1.40;;
16460;SDS011;8341;42.048;24.650;2023-04-25T14:04:31;1.67;;;1.58;;
16460;SDS011;8341;42.048;24.650;2023-04-25T14:06:58;1.27;;;1.17;;
16460;SDS011;8341;42.048;24.650;2023-04-25T14:09:25;1.27;;;1.17;;
16460;SDS011;8341;42.048;24.650;2023-04-25T14:11:52;1.33;;;1.17;;
16460;SDS011;8341;42.048;24.650;2023-04-25T14:14:19;2.08;;;1.15;;
16460;SDS011;8341;42.048;24.650;2023-04-25T14:16:46;1.20;;;1.20;;
16460;SDS011;8341;42.048;24.650;2023-04-25T14:19:14;2.38;;;1.30;;
16460;SDS011;8341;42.048;24.650;2023-04-25T14:21:42;1.13;;;1.13;;
16460;SDS011;8341;42.048;24.650;2023-04-25T14:24:10;1.50;;;1.40;;
16460;SDS011;8341;42.048;24.650;2023-04-25T14:26:37;1.33;;;1.23;;
16460;SDS011;8341;42.048;24.650;2023-04-25T14:29:04;1.10;;;1.10;;
16460;SDS011;8341;42.048;24.650;2023-04-25T14:31:32;1.40;;;1.30;;
16460;SDS011;8341;42.048;24.650;2023-04-25T14:33:59;4.32;;;1.88;;
16460;SDS011;8341;42.048;24.650;2023-04-25T14:36:26;1.92;;;1.80;;
16460;SDS011;8341;42.048;24.650;2023-04-25T14:38:57;1.77;;;1.63;;
16460;SDS011;8341;42.048;24.650;2023-04-25T14:41:24;1.25;;;1.20;;
16460;SDS011;8341;42.048;24.650;2023-04-25T14:43:51;2.35;;;1.40;;
16460;SDS011;8341;42.048;24.650;2023-04-25T14:46:18;1.88;;;1.77;;
16460;SDS011;8341;42.048;24.650;2023-04-25T14:48:45;1.58;;;1.40;;
16460;SDS011;8341;42.048;24.650;2023-04-25T14:51:12;2.00;;;1.90;;